Terminal Aerodrome Forecast
Issued by NWS

Home | Current Version | Previous Version | Text Only | Print | Product List | Glossary On
Versions: 1 2 3 4 5 6 7 8 9 10 11 12 13 14 15
000
FTUS43 KAPX 260524
TAFAPN
TAF
KAPN 260524Z 2606/2706 09010KT P6SM -RA OVC020
     FM260800 10011G19KT 4SM -RA BR OVC015
     FM261400 11010G18KT 2SM -RA BR OVC003
     FM262100 11008KT 1/2SM -RA FG OVC003
     FM270000 11006KT 1/2SM -SHRA FG OVC003=

USA.gov is the U.S. government's official web portal to all federal, state and local government web resources and services.